createdAt,value
2018-06-19T00:01:57.271Z,8.10
2018-06-19T00:04:25.704Z,10.10
2018-06-19T00:06:54.175Z,11.33
2018-06-19T00:09:22.684Z,11.93
2018-06-19T00:11:51.079Z,14.90
2018-06-19T00:14:19.491Z,12.03
2018-06-19T00:16:47.918Z,11.13
2018-06-19T00:19:16.359Z,13.47
2018-06-19T00:21:47.308Z,11.80
2018-06-19T00:24:15.704Z,8.27
2018-06-19T00:26:44.071Z,13.10
2018-06-19T00:29:12.524Z,10.37
2018-06-19T00:31:40.934Z,8.63
2018-06-19T00:34:09.372Z,11.03
2018-06-19T00:36:37.809Z,9.97
2018-06-19T00:39:09.143Z,9.83
2018-06-19T00:41:37.579Z,8.60
2018-06-19T00:44:06.327Z,7.70
2018-06-19T00:46:36.207Z,7.70
2018-06-19T00:49:04.616Z,11.77
2018-06-19T00:51:33.040Z,9.87
2018-06-19T00:54:01.464Z,8.87
2018-06-19T00:56:41.371Z,7.20
2018-06-19T00:59:09.768Z,7.77
2018-06-19T01:01:38.179Z,8.07
2018-06-19T01:04:06.986Z,10.03
2018-06-19T01:06:35.332Z,7.70
2018-06-19T01:09:05.096Z,7.50
2018-06-19T01:11:33.523Z,7.67
2018-06-19T01:14:02.037Z,8.50
2018-06-19T01:16:30.463Z,7.17
2018-06-19T01:18:58.843Z,5.67
2018-06-19T01:21:27.239Z,6.80
2018-06-19T01:23:55.740Z,8.50
2018-06-19T01:26:24.237Z,7.17
2018-06-19T01:28:55.900Z,7.97
2018-06-19T01:31:24.316Z,5.67
2018-06-19T01:33:52.752Z,7.80
2018-06-19T01:36:21.599Z,7.03
2018-06-19T01:38:50.311Z,7.63
2018-06-19T01:41:19.096Z,9.57
2018-06-19T01:43:47.562Z,9.20
2018-06-19T01:46:15.969Z,8.80
2018-06-19T01:48:44.415Z,11.07
2018-06-19T01:51:12.839Z,7.90
2018-06-19T01:53:41.367Z,8.73
2018-06-19T01:56:09.831Z,8.90
2018-06-19T01:58:38.446Z,11.60
2018-06-19T02:01:06.879Z,8.97
2018-06-19T02:03:35.301Z,9.47
2018-06-19T02:06:03.694Z,10.37
2018-06-19T02:08:32.124Z,8.90
2018-06-19T02:11:00.571Z,13.70
2018-06-19T02:13:29.008Z,11.03
2018-06-19T02:15:57.392Z,8.83
2018-06-19T02:18:25.812Z,11.47
2018-06-19T02:20:54.203Z,8.13
2018-06-19T02:23:22.289Z,8.50
2018-06-19T02:25:50.672Z,9.20
2018-06-19T02:28:19.080Z,11.13
2018-06-19T02:30:47.489Z,8.93
2018-06-19T02:33:15.964Z,8.83
2018-06-19T02:35:44.434Z,12.43
2018-06-19T02:38:12.855Z,12.77
2018-06-19T02:40:41.256Z,11.17
2018-06-19T02:43:09.717Z,9.33
2018-06-19T02:45:38.148Z,8.57
2018-06-19T02:48:06.553Z,8.83
2018-06-19T02:50:34.940Z,14.27
2018-06-19T02:53:03.432Z,9.07
2018-06-19T02:55:31.833Z,8.20
2018-06-19T02:58:00.255Z,7.47
2018-06-19T03:00:29.563Z,7.67
2018-06-19T03:02:58.012Z,8.50
2018-06-19T03:05:26.410Z,8.70
2018-06-19T03:07:54.976Z,11.13
2018-06-19T03:10:23.375Z,9.03
2018-06-19T03:12:51.847Z,9.20
2018-06-19T03:15:20.255Z,9.70
2018-06-19T03:17:48.443Z,8.60
2018-06-19T03:20:16.855Z,10.33
2018-06-19T03:22:45.256Z,16.87
2018-06-19T03:25:13.659Z,7.07
2018-06-19T03:27:42.264Z,14.30
2018-06-19T03:30:10.723Z,11.13
2018-06-19T03:32:39.160Z,10.80
2018-06-19T03:35:07.581Z,10.50
2018-06-19T03:37:35.975Z,9.57
2018-06-19T03:40:04.396Z,19.20
2018-06-19T03:42:32.803Z,19.27
2018-06-19T03:45:01.213Z,14.70
2018-06-19T03:47:29.617Z,12.83
2018-06-19T03:49:58.019Z,14.73
2018-06-19T03:52:26.435Z,11.13
2018-06-19T03:54:55.151Z,9.63
2018-06-19T03:57:23.529Z,8.47
2018-06-19T03:59:51.965Z,18.30
2018-06-19T04:02:20.544Z,11.57
2018-06-19T04:04:48.977Z,12.00
2018-06-19T04:07:17.400Z,11.70
2018-06-19T04:09:45.835Z,12.27
2018-06-19T04:12:14.255Z,12.20
2018-06-19T04:14:42.807Z,9.40
2018-06-19T04:17:15.436Z,12.30
2018-06-19T04:19:43.807Z,11.87
2018-06-19T04:22:12.387Z,10.40
2018-06-19T04:24:40.972Z,12.87
2018-06-19T04:27:09.424Z,14.20
2018-06-19T04:29:37.872Z,11.50
2018-06-19T04:32:06.312Z,10.73
2018-06-19T04:34:34.761Z,8.97
2018-06-19T04:37:03.171Z,8.50
2018-06-19T04:39:31.565Z,7.83
2018-06-19T04:41:59.791Z,8.60
2018-06-19T04:44:28.191Z,9.80
2018-06-19T04:46:56.687Z,10.60
2018-06-19T04:49:25.126Z,13.03
2018-06-19T04:51:53.479Z,7.27
2018-06-19T04:54:21.897Z,7.47
2018-06-19T04:56:50.295Z,7.60
2018-06-19T04:59:18.719Z,13.83
2018-06-19T05:01:47.195Z,8.43
2018-06-19T05:04:15.681Z,9.80
2018-06-19T05:06:44.108Z,7.80
2018-06-19T05:09:13.825Z,10.43
2018-06-19T05:11:43.841Z,11.37
2018-06-19T05:14:12.260Z,8.17
2018-06-19T05:16:41.340Z,8.00
2018-06-19T05:19:10.212Z,8.70
2018-06-19T05:21:38.658Z,6.73
2018-06-19T05:24:07.144Z,7.97
2018-06-19T05:26:35.533Z,14.57
2018-06-19T05:29:04.843Z,8.30
2018-06-19T05:31:33.249Z,9.57
2018-06-19T05:34:01.639Z,10.03
2018-06-19T05:36:30.069Z,9.27
2018-06-19T05:38:58.761Z,9.90
2018-06-19T05:41:27.273Z,8.03
2018-06-19T05:43:55.721Z,10.63
2018-06-19T05:46:24.143Z,11.23
2018-06-19T05:48:52.555Z,7.63
2018-06-19T05:51:20.976Z,8.10
2018-06-19T05:53:49.577Z,8.63
2018-06-19T05:56:17.977Z,10.40
2018-06-19T05:58:46.531Z,10.80
2018-06-19T06:01:14.949Z,11.17
2018-06-19T06:03:43.355Z,12.23
2018-06-19T06:06:11.780Z,12.13
2018-06-19T06:08:40.170Z,12.30
2018-06-19T06:11:08.655Z,16.00
2018-06-19T06:13:37.013Z,18.43
2018-06-19T06:16:05.499Z,10.77
2018-06-19T06:18:33.907Z,20.77
2018-06-19T06:21:02.328Z,11.63
2018-06-19T06:23:30.707Z,13.23
2018-06-19T06:25:59.152Z,11.97
2018-06-19T06:28:27.603Z,13.20
2018-06-19T06:30:56.028Z,12.20
2018-06-19T06:33:24.580Z,9.70
2018-06-19T06:35:53.140Z,13.90
2018-06-19T06:38:21.560Z,10.13
2018-06-19T06:40:49.972Z,10.10
2018-06-19T06:43:18.413Z,8.03
2018-06-19T06:45:46.828Z,13.83
2018-06-19T06:48:15.282Z,12.03
2018-06-19T06:50:43.668Z,17.33
2018-06-19T06:53:12.280Z,15.23
2018-06-19T06:55:40.694Z,11.87
2018-06-19T06:58:09.065Z,12.00
2018-06-19T07:00:37.467Z,15.23
2018-06-19T07:03:06.193Z,13.70
2018-06-19T07:05:37.237Z,15.73
2018-06-19T07:08:05.706Z,11.40
2018-06-19T07:10:34.126Z,16.37
2018-06-19T07:13:02.530Z,13.17
2018-06-19T07:15:31.004Z,15.10
2018-06-19T07:17:59.381Z,11.03
2018-06-19T07:20:27.845Z,17.97
2018-06-19T07:22:56.277Z,11.87
2018-06-19T07:25:24.713Z,13.03
2018-06-19T07:27:53.157Z,12.13
2018-06-19T07:30:21.612Z,13.10
2018-06-19T07:32:50.021Z,9.80
2018-06-19T07:35:18.427Z,15.63
2018-06-19T07:37:46.826Z,12.47
2018-06-19T07:40:15.341Z,13.70
2018-06-19T07:42:43.763Z,11.20
2018-06-19T07:45:12.293Z,11.03
2018-06-19T07:47:41.205Z,10.37
2018-06-19T07:50:09.749Z,9.13
2018-06-19T07:52:38.155Z,10.47
2018-06-19T07:55:06.538Z,9.20
2018-06-19T07:57:34.904Z,8.40
2018-06-19T08:00:03.363Z,13.30
2018-06-19T08:02:31.789Z,10.00
2018-06-19T08:05:00.189Z,8.10
2018-06-19T08:07:28.587Z,9.30
2018-06-19T08:09:56.971Z,10.47
2018-06-19T08:12:25.359Z,11.50
2018-06-19T08:14:53.740Z,10.93
2018-06-19T08:17:22.138Z,10.47
2018-06-19T08:19:50.511Z,7.33
2018-06-19T08:22:18.913Z,8.60
2018-06-19T08:24:47.325Z,9.10
2018-06-19T08:27:15.723Z,7.20
2018-06-19T08:29:44.149Z,10.73
2018-06-19T08:32:12.557Z,10.13
2018-06-19T08:34:41.147Z,12.60
2018-06-19T08:37:09.571Z,11.53
2018-06-19T08:39:37.953Z,15.47
2018-06-19T08:42:06.399Z,9.83
2018-06-19T08:44:34.937Z,9.80
2018-06-19T08:47:03.329Z,9.20
2018-06-19T08:49:31.716Z,7.90
2018-06-19T08:52:00.117Z,10.40
2018-06-19T08:54:28.523Z,11.80
2018-06-19T08:56:56.926Z,9.43
2018-06-19T08:59:25.350Z,8.77
2018-06-19T09:01:53.769Z,13.37
2018-06-19T09:04:22.209Z,9.70
2018-06-19T09:06:50.664Z,11.60
2018-06-19T09:09:19.087Z,16.53
2018-06-19T09:11:47.527Z,10.57
2018-06-19T09:14:15.931Z,10.87
2018-06-19T09:16:44.367Z,10.93
2018-06-19T09:19:12.793Z,11.60
2018-06-19T09:21:41.239Z,12.47
2018-06-19T09:24:09.689Z,12.70
2018-06-19T09:26:38.096Z,10.40
2018-06-19T09:29:06.497Z,12.43
2018-06-19T09:31:34.958Z,15.70
2018-06-19T09:34:03.459Z,14.23
2018-06-19T09:36:31.903Z,17.20
2018-06-19T09:39:01.036Z,15.90
2018-06-19T09:41:29.467Z,15.10
2018-06-19T09:43:57.875Z,14.97
2018-06-19T09:46:26.407Z,12.63
2018-06-19T09:48:54.936Z,11.10
2018-06-19T09:51:23.483Z,13.20
2018-06-19T09:53:51.897Z,12.77
2018-06-19T09:56:20.327Z,11.90
2018-06-19T09:58:48.798Z,13.23
2018-06-19T10:01:17.226Z,12.70
2018-06-19T10:03:45.636Z,15.33
2018-06-19T10:06:14.147Z,11.27
2018-06-19T10:08:42.506Z,13.07
2018-06-19T10:11:10.982Z,14.47
2018-06-19T10:13:39.399Z,10.60
2018-06-19T10:16:07.810Z,12.90
2018-06-19T10:18:36.311Z,16.17
2018-06-19T10:21:04.715Z,12.87
2018-06-19T10:23:33.116Z,10.97
2018-06-19T10:26:01.545Z,14.07
2018-06-19T10:28:29.939Z,15.93
2018-06-19T10:30:58.475Z,16.40
2018-06-19T10:33:26.996Z,17.70
2018-06-19T10:35:55.589Z,15.07
2018-06-19T10:38:23.950Z,16.90
2018-06-19T10:40:52.343Z,13.40
2018-06-19T10:43:20.772Z,14.33
2018-06-19T10:45:49.185Z,13.80
2018-06-19T10:48:17.690Z,14.70
2018-06-19T10:50:46.135Z,15.43
2018-06-19T10:53:14.567Z,13.70
2018-06-19T10:55:43.034Z,16.60
2018-06-19T10:58:11.433Z,14.13
2018-06-19T11:00:39.839Z,14.20
2018-06-19T11:03:08.264Z,16.83
2018-06-19T11:05:36.835Z,15.00
2018-06-19T11:08:05.275Z,15.70
2018-06-19T11:10:33.687Z,12.47
2018-06-19T11:13:02.100Z,13.00
2018-06-19T11:15:30.511Z,12.90
2018-06-19T11:17:58.931Z,11.03
2018-06-19T11:20:27.099Z,12.40
2018-06-19T11:22:55.519Z,12.63
2018-06-19T11:25:23.921Z,14.20
2018-06-19T11:27:52.334Z,11.50
2018-06-19T11:30:21.275Z,11.80
2018-06-19T11:32:49.724Z,10.13
2018-06-19T11:35:18.150Z,8.37
2018-06-19T11:37:46.556Z,10.37
2018-06-19T11:40:15.061Z,9.37
2018-06-19T11:42:43.475Z,9.20
2018-06-19T11:45:11.848Z,11.87
2018-06-19T11:47:40.270Z,9.63
2018-06-19T11:50:08.689Z,8.57
2018-06-19T11:52:37.216Z,10.43
2018-06-19T11:55:05.808Z,10.00
2018-06-19T11:57:34.232Z,9.33
2018-06-19T12:00:02.640Z,9.27
2018-06-19T12:02:31.040Z,9.67
2018-06-19T12:04:59.480Z,10.50
2018-06-19T12:07:32.060Z,12.00
2018-06-19T12:10:01.060Z,12.33
2018-06-19T12:12:29.466Z,12.80
2018-06-19T12:14:57.892Z,17.43
2018-06-19T12:17:26.316Z,13.37
2018-06-19T12:19:54.713Z,13.73
2018-06-19T12:22:23.141Z,15.20
2018-06-19T12:24:51.589Z,12.37
2018-06-19T12:27:20.076Z,12.60
2018-06-19T12:29:48.492Z,13.20
2018-06-19T12:32:16.894Z,13.87
2018-06-19T12:34:45.307Z,14.37
2018-06-19T12:37:13.769Z,13.93
2018-06-19T12:39:42.227Z,13.27
2018-06-19T12:42:10.691Z,13.50
2018-06-19T12:44:39.106Z,12.67
2018-06-19T12:47:07.516Z,11.80
2018-06-19T12:49:47.259Z,13.97
2018-06-19T12:52:27.080Z,13.10
2018-06-19T12:56:05.551Z,13.60
2018-06-19T12:58:33.943Z,12.17
2018-06-19T13:01:02.350Z,17.27
2018-06-19T13:03:42.190Z,15.70
2018-06-19T13:06:21.994Z,11.57
2018-06-19T13:08:50.377Z,14.27
2018-06-19T13:11:19.681Z,20.93
2018-06-19T13:13:59.493Z,12.73
2018-06-19T13:16:39.206Z,17.60
2018-06-19T13:19:23.360Z,11.93
2018-06-19T13:21:51.972Z,13.33
2018-06-19T13:24:20.661Z,12.73
2018-06-19T13:26:49.192Z,14.90
2018-06-19T13:29:39.413Z,11.87
2018-06-19T13:32:07.904Z,12.97
2018-06-19T13:34:36.911Z,12.70
2018-06-19T13:37:05.760Z,15.30
2018-06-19T13:39:34.859Z,13.00
2018-06-19T13:42:15.357Z,13.57
2018-06-19T13:44:50.757Z,11.97
2018-06-19T13:47:19.418Z,10.57
2018-06-19T13:49:47.899Z,10.50
2018-06-19T13:52:16.416Z,13.77
2018-06-19T13:54:44.884Z,11.07
2018-06-19T13:57:36.764Z,11.03
2018-06-19T14:00:07.941Z,15.80
2018-06-19T14:02:36.700Z,9.37
2018-06-19T14:05:07.064Z,7.40
2018-06-19T14:07:42.221Z,12.40
2018-06-19T14:10:22.053Z,12.87
2018-06-19T14:12:59.038Z,13.40
2018-06-19T14:15:28.732Z,6.77
2018-06-19T14:17:57.508Z,11.50
2018-06-19T14:20:25.993Z,6.83
2018-06-19T14:22:54.389Z,14.33
2018-06-19T14:25:23.024Z,9.33
2018-06-19T14:27:51.552Z,12.03
2018-06-19T14:30:19.975Z,12.47
2018-06-19T14:32:48.724Z,9.10
2018-06-19T14:35:17.494Z,7.13
2018-06-19T14:37:45.909Z,8.43
2018-06-19T14:40:14.857Z,9.07
2018-06-19T14:42:43.261Z,16.90
2018-06-19T14:45:19.196Z,24.00
2018-06-19T14:47:47.627Z,11.33
2018-06-19T14:50:16.031Z,12.43
2018-06-19T14:52:44.436Z,11.50
2018-06-19T14:55:13.010Z,10.70
2018-06-19T14:57:41.431Z,19.80
2018-06-19T15:00:10.620Z,11.10
2018-06-19T15:02:39.277Z,8.87
2018-06-19T15:05:08.176Z,16.03
2018-06-19T15:07:42.028Z,12.33
2018-06-19T15:10:10.490Z,20.33
2018-06-19T15:12:38.968Z,10.53
2018-06-19T15:15:07.363Z,13.23
2018-06-19T15:17:35.763Z,11.07
2018-06-19T15:20:04.627Z,9.40
2018-06-19T15:22:33.254Z,7.77
2018-06-19T15:25:01.672Z,7.53
2018-06-19T15:27:30.082Z,7.30
2018-06-19T15:29:58.453Z,7.80
2018-06-19T15:32:26.944Z,8.40
2018-06-19T15:34:55.336Z,8.37
2018-06-19T15:37:23.761Z,8.20
2018-06-19T15:39:52.224Z,7.70
2018-06-19T15:42:20.684Z,7.03
2018-06-19T15:44:49.170Z,8.77
2018-06-19T15:47:17.624Z,7.60
2018-06-19T15:49:46.096Z,9.13
2018-06-19T15:52:14.496Z,8.37
2018-06-19T15:54:42.950Z,9.30
2018-06-19T15:57:11.344Z,9.90
2018-06-19T15:59:39.752Z,9.47
2018-06-19T16:02:08.380Z,11.00
2018-06-19T16:04:36.808Z,7.93
2018-06-19T16:07:05.258Z,9.13
2018-06-19T16:09:33.688Z,8.00
2018-06-19T16:12:02.106Z,9.00
2018-06-19T16:14:30.527Z,16.03
2018-06-19T16:16:59.823Z,8.30
2018-06-19T16:19:28.321Z,7.80
2018-06-19T16:21:56.752Z,7.33
2018-06-19T16:24:25.160Z,7.30
2018-06-19T16:26:53.851Z,7.63
2018-06-19T16:29:22.292Z,9.13
2018-06-19T16:31:50.680Z,9.43
2018-06-19T16:34:19.068Z,9.07
2018-06-19T16:36:47.528Z,10.00
2018-06-19T16:39:15.928Z,9.53
2018-06-19T16:41:44.354Z,10.33
2018-06-19T16:44:12.733Z,7.20
2018-06-19T16:46:41.188Z,6.77
2018-06-19T16:49:09.688Z,6.00
2018-06-19T16:51:38.094Z,7.23
2018-06-19T16:54:06.600Z,8.53
2018-06-19T16:56:35.146Z,9.57
2018-06-19T16:59:03.556Z,11.00
2018-06-19T17:01:31.916Z,7.80
2018-06-19T17:04:00.350Z,11.83
2018-06-19T17:06:28.892Z,13.77
2018-06-19T17:08:57.315Z,10.37
2018-06-19T17:11:25.753Z,8.13
2018-06-19T17:13:54.142Z,9.90
2018-06-19T17:16:22.540Z,12.13
2018-06-19T17:18:50.962Z,9.40
2018-06-19T17:21:19.434Z,8.67
2018-06-19T17:23:47.859Z,7.10
2018-06-19T17:26:16.033Z,7.80
2018-06-19T17:28:44.500Z,7.93
2018-06-19T17:31:12.951Z,6.70
2018-06-19T17:33:41.615Z,6.23
2018-06-19T17:36:10.072Z,7.37
2018-06-19T17:38:38.489Z,6.77
2018-06-19T17:41:07.090Z,10.60
2018-06-19T17:43:35.510Z,16.97
2018-06-19T17:46:05.994Z,8.93
2018-06-19T17:48:34.484Z,9.90
2018-06-19T17:51:02.630Z,20.63
2018-06-19T17:53:31.045Z,24.77
2018-06-19T17:55:59.508Z,16.27
2018-06-19T17:58:28.294Z,9.40
2018-06-19T18:00:56.729Z,45.43
2018-06-19T18:03:25.164Z,44.07
2018-06-19T18:05:53.597Z,20.20
2018-06-19T18:08:22.225Z,12.80
2018-06-19T18:10:51.293Z,9.13
2018-06-19T18:13:20.230Z,9.87
2018-06-19T18:15:48.852Z,7.97
2018-06-19T18:18:17.299Z,8.77
2018-06-19T18:20:46.210Z,7.67
2018-06-19T18:23:15.153Z,6.73
2018-06-19T18:25:43.893Z,8.23
2018-06-19T18:28:12.281Z,9.53
2018-06-19T18:30:40.777Z,8.13
2018-06-19T18:33:09.254Z,7.07
2018-06-19T18:35:37.869Z,7.60
2018-06-19T18:38:06.373Z,9.03
2018-06-19T18:40:34.881Z,9.20
2018-06-19T18:43:03.290Z,7.47
2018-06-19T18:45:31.691Z,6.50
2018-06-19T18:48:00.117Z,6.83
2018-06-19T18:50:29.488Z,7.80
2018-06-19T18:52:57.894Z,7.27
2018-06-19T18:55:26.492Z,7.20
2018-06-19T18:57:54.906Z,7.47
2018-06-19T19:00:23.309Z,7.30
2018-06-19T19:02:51.778Z,7.23
2018-06-19T19:05:20.271Z,8.33
2018-06-19T19:07:48.693Z,7.57
2018-06-19T19:10:23.064Z,8.90
2018-06-19T19:12:51.190Z,9.20
2018-06-19T19:15:24.893Z,8.50
2018-06-19T19:17:58.722Z,8.60
2018-06-19T19:20:27.469Z,8.60
2018-06-19T19:22:56.097Z,7.93
2018-06-19T19:25:28.082Z,9.33
2018-06-19T19:28:01.886Z,8.43
2018-06-19T19:30:30.377Z,8.30
2018-06-19T19:32:58.826Z,7.30
2018-06-19T19:35:27.851Z,8.07
2018-06-19T19:38:01.568Z,7.63
2018-06-19T19:40:30.054Z,7.03
2018-06-19T19:42:58.484Z,7.23
2018-06-19T19:45:26.910Z,7.27
2018-06-19T19:48:00.510Z,8.57
2018-06-19T19:50:28.939Z,6.70
2018-06-19T19:52:58.443Z,7.17
2018-06-19T19:55:27.100Z,8.50
2018-06-19T19:58:00.948Z,7.17
2018-06-19T20:00:29.400Z,8.63
2018-06-19T20:02:57.892Z,7.17
2018-06-19T20:05:28.232Z,7.33
2018-06-19T20:07:56.804Z,8.30
2018-06-19T20:10:25.288Z,11.50
2018-06-19T20:12:53.885Z,8.33
2018-06-19T20:15:22.331Z,10.47
2018-06-19T20:17:50.897Z,8.53
2018-06-19T20:20:19.620Z,7.97
2018-06-19T20:22:48.078Z,8.17
2018-06-19T20:25:17.370Z,9.40
2018-06-19T20:27:45.934Z,8.40
2018-06-19T20:30:26.787Z,8.77
2018-06-19T20:32:56.063Z,9.63
2018-06-19T20:35:24.593Z,12.60
2018-06-19T20:37:53.014Z,10.30
2018-06-19T20:40:21.612Z,9.57
2018-06-19T20:42:50.208Z,9.40
2018-06-19T20:45:18.764Z,9.00
2018-06-19T20:47:47.293Z,10.20
2018-06-19T20:50:16.034Z,9.73
2018-06-19T20:52:49.714Z,8.93
2018-06-19T20:55:18.166Z,12.50
2018-06-19T20:57:47.109Z,8.93
2018-06-19T21:00:17.872Z,12.57
2018-06-19T21:02:46.758Z,15.43
2018-06-19T21:05:15.292Z,15.30
2018-06-19T21:07:44.778Z,10.67
2018-06-19T21:10:14.466Z,11.40
2018-06-19T21:12:43.005Z,11.37
2018-06-19T21:15:12.413Z,11.60
2018-06-19T21:17:40.896Z,11.13
2018-06-19T21:20:09.308Z,10.60
2018-06-19T21:22:40.172Z,11.47
2018-06-19T21:25:09.556Z,10.73
2018-06-19T21:27:38.069Z,17.43
2018-06-19T21:30:07.209Z,13.17
2018-06-19T21:32:36.854Z,14.23
2018-06-19T21:35:05.891Z,12.53
2018-06-19T21:37:34.343Z,14.80
2018-06-19T21:40:02.798Z,11.10
2018-06-19T21:42:31.356Z,16.10
2018-06-19T21:44:59.808Z,11.20
2018-06-19T21:47:29.471Z,11.07
2018-06-19T21:49:58.104Z,10.20
2018-06-19T21:52:26.565Z,9.20
2018-06-19T21:54:54.988Z,11.73
2018-06-19T21:57:23.462Z,12.50
2018-06-19T21:59:52.058Z,18.23
2018-06-19T22:02:25.839Z,12.17
2018-06-19T22:04:54.264Z,10.30
2018-06-19T22:07:22.893Z,10.70
2018-06-19T22:09:51.322Z,11.73
2018-06-19T22:12:19.817Z,13.50
2018-06-19T22:14:48.298Z,11.70
2018-06-19T22:17:17.106Z,15.63
2018-06-19T22:19:45.560Z,27.80
2018-06-19T22:22:14.008Z,18.43
2018-06-19T22:24:42.496Z,21.17
2018-06-19T22:27:10.878Z,20.03
2018-06-19T22:29:39.351Z,15.77
2018-06-19T22:32:08.144Z,27.63
2018-06-19T22:34:36.556Z,31.70
2018-06-19T22:37:05.077Z,30.23
2018-06-19T22:39:33.652Z,22.67
2018-06-19T22:42:02.060Z,12.37
2018-06-19T22:44:30.496Z,11.43
2018-06-19T22:46:58.952Z,15.47
2018-06-19T22:49:27.360Z,11.40
2018-06-19T22:51:55.763Z,10.70
2018-06-19T22:54:24.142Z,11.20
2018-06-19T22:56:52.584Z,11.07
2018-06-19T22:59:21.000Z,12.90
2018-06-19T23:01:49.524Z,16.00
2018-06-19T23:04:17.944Z,11.90
2018-06-19T23:06:46.364Z,11.00
2018-06-19T23:09:14.789Z,11.30
2018-06-19T23:11:43.424Z,12.90
2018-06-19T23:14:11.950Z,10.93
2018-06-19T23:16:40.364Z,11.00
2018-06-19T23:19:09.426Z,12.40
2018-06-19T23:21:37.868Z,13.53
2018-06-19T23:24:06.282Z,12.93
2018-06-19T23:26:34.896Z,12.27
2018-06-19T23:29:03.346Z,11.63
2018-06-19T23:31:32.226Z,11.27
2018-06-19T23:34:00.710Z,11.17
2018-06-19T23:36:29.195Z,15.27
2018-06-19T23:38:57.672Z,12.53
2018-06-19T23:41:26.193Z,13.50
2018-06-19T23:43:54.614Z,13.03
2018-06-19T23:46:23.014Z,14.33
2018-06-19T23:48:51.492Z,11.13
2018-06-19T23:51:19.984Z,10.30
2018-06-19T23:53:48.372Z,10.37
2018-06-19T23:56:16.788Z,10.00
2018-06-19T23:58:45.196Z,12.40
